CDT,Max TemperatureF,Mean TemperatureF,Min TemperatureF,Max Dew PointF,MeanDew PointF,Min DewpointF,Max Humidity, Mean Humidity, Min Humidity, Max Sea Level PressureIn, Mean Sea Level PressureIn, Min Sea Level PressureIn, Max VisibilityMiles, Mean VisibilityMiles, Min VisibilityMiles, Max Wind SpeedMPH, Mean Wind SpeedMPH, Max Gust SpeedMPH,PrecipitationIn, CloudCover, Events, WindDirDegrees
2013-4-1,64,55,46,50,40,34,94,57,37,30.12,30.05,29.93,10,9,3,13,6,,0.00,2,,359
2013-4-2,50,44,37,34,25,18,70,49,28,30.25,30.19,30.12,10,10,10,9,6,,0.00,5,,12
2013-4-3,55,48,41,34,23,18,62,39,24,30.22,30.17,30.12,10,10,10,9,5,,0.00,5,Rain,30
2013-4-4,46,44,42,41,39,34,87,80,62,30.14,30.03,29.97,10,8,3,12,3,17,0.27,8,Rain,102
2013-4-5,64,53,42,43,37,25,93,64,22,30.12,30.07,29.99,10,9,2,14,4,18,0.00,3,Rain,355
2013-4-6,71,53,35,39,31,23,93,49,16,30.17,30.10,30.03,10,10,2,14,3,18,0.00,0,,178
2013-4-7,71,61,51,46,39,32,72,47,25,30.14,30.07,30.01,10,10,10,16,6,22,0.00,0,,195
2013-4-8,77,65,53,52,47,45,82,52,32,30.09,30.04,29.99,10,10,10,22,6,30,0.00,2,,184
2013-4-9,80,66,53,54,50,46,88,52,30,30.17,30.07,30.01,10,10,10,15,6,25,0.00,1,,161
2013-4-10,84,72,59,54,48,41,77,44,22,30.08,29.98,29.85,10,10,10,17,7,23,0.00,0,,177
2013-4-11,75,66,55,61,54,50,88,65,44,29.87,29.75,29.60,10,9,2,21,10,30,0.56,4,Rain-Thunderstorm,172
2013-4-12,62,52,42,50,37,32,88,60,32,30.00,29.90,29.72,10,10,5,15,8,20,0.00,2,,289
2013-4-13,68,54,41,45,38,30,93,60,24,30.11,30.04,29.99,10,10,0,8,1,,0.00,0,Fog,356
2013-4-14,64,55,46,50,43,30,87,66,30,30.02,29.95,29.88,10,10,5,18,4,31,0.00,3,Rain,147
2013-4-15,78,64,51,54,51,48,94,63,36,30.07,29.99,29.91,10,10,2,12,4,16,0.00,3,,164
2013-4-16,80,71,62,61,58,54,88,65,48,30.19,30.13,30.06,10,10,2,12,7,18,0.10,4,Rain-Thunderstorm,152
2013-4-17,84,74,64,63,59,54,88,61,37,30.19,30.10,30.03,10,10,2,13,5,18,0.05,3,Rain-Thunderstorm,169
2013-4-18,80,72,64,59,54,46,83,55,30,30.02,29.92,29.69,10,10,10,18,9,33,0.01,2,,153
2013-4-19,73,56,39,63,39,30,88,68,44,30.16,29.95,29.67,10,9,2,20,12,33,0.85,6,Rain-Thunderstorm,278
2013-4-20,60,46,33,37,30,21,93,59,23,30.29,30.22,30.15,10,10,3,14,2,18,0.00,0,,4
2013-4-21,69,54,39,43,32,23,87,50,18,30.35,30.28,30.22,10,10,10,10,2,16,0.00,0,,118
2013-4-22,71,58,44,46,37,30,87,49,22,30.29,30.21,30.12,10,10,10,14,4,21,0.00,0,,146
2013-4-23,73,62,51,48,40,28,76,45,28,30.18,30.11,30.02,10,10,10,15,6,22,0.00,1,,167
2013-4-24,68,56,44,55,47,34,87,69,46,30.28,30.10,29.98,10,9,2,22,10,29,0.16,7,Rain-Thunderstorm,254
2013-4-25,62,52,42,41,32,23,87,53,22,30.38,30.33,30.24,10,10,10,13,6,16,0.00,2,,4
2013-4-26,71,55,39,48,35,21,88,54,15,30.40,30.32,30.24,10,10,7,20,2,25,0.02,2,Rain-Thunderstorm,68
2013-4-27,68,60,51,55,52,46,88,73,63,30.30,30.14,30.00,10,10,7,13,4,20,0.06,7,Rain-Thunderstorm,128
2013-4-28,66,60,55,61,56,52,88,82,72,30.02,29.97,29.94,10,9,2,20,8,30,0.50,7,Rain-Thunderstorm,192
2013-4-29,71,62,53,54,51,46,94,71,41,30.05,29.99,29.94,10,9,4,7,1,,0.00,5,,236
2013-4-30,78,62,46,55,47,37,94,62,23,30.05,30.01,29.96,10,8,0,8,1,,0.00,1,Fog,145